OIIK  Qazvin  Airport

Qazvin, Iran

Add Bookmark
ICAO OIIK
Type Airport
Status Operational
Latitude
36° 14' 24" N
36.240101
Longitude
50° 2' 49" E
50.047100
Local (DST + 5) UTC (GMT + 4)
May 4, 2015 08:27 May 4, 2015 03:57
Sunrise-Sunset Local UTC
Begin Civil Twilight 05:44 01:14
Sunrise 06:12 01:42
Sunset 08:00 15:30
End Civil Twilight 08:28 15:58
VFR
VFR
MVFR
MVFR
IFR
VFR
LIFR
VFR
Unknown
Unavailable

Current Weather

METAR Observed MVFR
OIIK 040300Z 01002KT 5000 HZ NSC 11/00 Q1015 Mon, May 4, 2015 @ 03:00 UTC
(57 Minutes ago)
Marginal Visual Flight Rules
Wind Visibility Conditions
010° at 2 knots (4 kph) 5,005 m
  • Haze
Temperatures Readings Precipitation
Current Temp
11°C
52°F
Dewpoint
0°C
32°F
Humidity 47%
Altimeter 29.97" Hg
Sea Level Pressure 1,015 mb
Field Elevation
1,278 m
4,193 ft
None Recorded

Additional weather within a 92.6km radius of OIIK

Map ICAO Location
OIIP 87km SE (126°)
VFR
VFR
MVFR
MVFR
IFR
VFR
LIFR
VFR
Unknown
Unavailable
-
-

CheckWX.com is intended as a tool to help pilots better visualize weather data. It is not intended as a substitute for an official weather briefing obtained from a Flight Service Station. CheckWX.com does not meet the FAA requirements for an official pre-flight weather briefing. Therefore, it's important that pilots still call and obtain an official FSS pre-flight weather briefing.

© 2007-2015 CheckWX.com
03:57:58 UTC